sensor_id;sensor_type;location;lat;lon;timestamp;temperature;humidity
30174;DHT22;16985;50.814;8.530;2022-11-23T00:01:24;6.30;99.90
30174;DHT22;16985;50.814;8.530;2022-11-23T00:03:53;6.20;99.90
30174;DHT22;16985;50.814;8.530;2022-11-23T00:06:21;6.30;99.90
30174;DHT22;16985;50.814;8.530;2022-11-23T00:08:48;6.30;99.90
30174;DHT22;16985;50.814;8.530;2022-11-23T00:11:15;6.30;99.90
30174;DHT22;16985;50.814;8.530;2022-11-23T00:13:41;6.30;99.90
30174;DHT22;16985;50.814;8.530;2022-11-23T00:16:09;6.30;99.90
30174;DHT22;16985;50.814;8.530;2022-11-23T00:18:44;6.30;99.90
30174;DHT22;16985;50.814;8.530;2022-11-23T00:21:14;6.30;99.90
30174;DHT22;16985;50.814;8.530;2022-11-23T00:23:41;6.30;99.90
30174;DHT22;16985;50.814;8.530;2022-11-23T00:26:07;6.20;99.90
30174;DHT22;16985;50.814;8.530;2022-11-23T00:28:34;6.20;99.90
30174;DHT22;16985;50.814;8.530;2022-11-23T00:31:03;6.30;99.90
30174;DHT22;16985;50.814;8.530;2022-11-23T00:33:30;6.30;99.90
30174;DHT22;16985;50.814;8.530;2022-11-23T00:36:23;6.20;99.90
30174;DHT22;16985;50.814;8.530;2022-11-23T00:38:50;6.20;99.90
30174;DHT22;16985;50.814;8.530;2022-11-23T00:41:20;6.20;99.90
30174;DHT22;16985;50.814;8.530;2022-11-23T00:43:48;6.20;99.90
30174;DHT22;16985;50.814;8.530;2022-11-23T00:48:44;6.20;99.90
30174;DHT22;16985;50.814;8.530;2022-11-23T00:51:14;6.20;99.90
30174;DHT22;16985;50.814;8.530;2022-11-23T00:53:41;6.20;99.90
30174;DHT22;16985;50.814;8.530;2022-11-23T00:56:08;6.20;99.90
30174;DHT22;16985;50.814;8.530;2022-11-23T00:58:34;6.20;99.90
30174;DHT22;16985;50.814;8.530;2022-11-23T01:01:11;6.20;99.90
30174;DHT22;16985;50.814;8.530;2022-11-23T01:03:41;6.10;99.90
30174;DHT22;16985;50.814;8.530;2022-11-23T01:06:16;6.20;99.90
30174;DHT22;16985;50.814;8.530;2022-11-23T01:08:50;6.20;99.90
30174;DHT22;16985;50.814;8.530;2022-11-23T01:11:18;6.20;99.90
30174;DHT22;16985;50.814;8.530;2022-11-23T01:13:44;6.10;99.90
30174;DHT22;16985;50.814;8.530;2022-11-23T01:16:16;6.10;99.90
30174;DHT22;16985;50.814;8.530;2022-11-23T01:18:46;6.10;99.90
30174;DHT22;16985;50.814;8.530;2022-11-23T01:21:12;6.10;99.90
30174;DHT22;16985;50.814;8.530;2022-11-23T01:23:38;6.10;99.90
30174;DHT22;16985;50.814;8.530;2022-11-23T01:26:06;6.10;99.90
30174;DHT22;16985;50.814;8.530;2022-11-23T01:28:34;6.10;99.90
30174;DHT22;16985;50.814;8.530;2022-11-23T01:33:37;6.20;99.90
30174;DHT22;16985;50.814;8.530;2022-11-23T01:36:26;6.10;99.90
30174;DHT22;16985;50.814;8.530;2022-11-23T01:38:55;6.20;99.90
30174;DHT22;16985;50.814;8.530;2022-11-23T01:41:27;6.20;99.90
30174;DHT22;16985;50.814;8.530;2022-11-23T01:43:57;6.10;99.90
30174;DHT22;16985;50.814;8.530;2022-11-23T01:46:23;6.20;99.90
30174;DHT22;16985;50.814;8.530;2022-11-23T01:48:56;6.20;99.90
30174;DHT22;16985;50.814;8.530;2022-11-23T01:51:35;6.20;99.90
30174;DHT22;16985;50.814;8.530;2022-11-23T01:54:15;6.10;99.90
30174;DHT22;16985;50.814;8.530;2022-11-23T01:56:45;6.20;99.90
30174;DHT22;16985;50.814;8.530;2022-11-23T01:59:16;6.20;99.90
30174;DHT22;16985;50.814;8.530;2022-11-23T02:01:43;6.20;99.90
30174;DHT22;16985;50.814;8.530;2022-11-23T02:04:13;6.20;99.90
30174;DHT22;16985;50.814;8.530;2022-11-23T02:06:45;6.20;99.90
30174;DHT22;16985;50.814;8.530;2022-11-23T02:09:13;6.20;99.90
30174;DHT22;16985;50.814;8.530;2022-11-23T02:11:40;6.20;99.90
30174;DHT22;16985;50.814;8.530;2022-11-23T02:14:06;6.20;99.90
30174;DHT22;16985;50.814;8.530;2022-11-23T02:16:32;6.20;99.90
30174;DHT22;16985;50.814;8.530;2022-11-23T02:18:58;6.20;99.90
30174;DHT22;16985;50.814;8.530;2022-11-23T02:21:24;6.20;99.90
30174;DHT22;16985;50.814;8.530;2022-11-23T02:24:06;6.20;99.90
30174;DHT22;16985;50.814;8.530;2022-11-23T02:26:37;6.20;99.90
30174;DHT22;16985;50.814;8.530;2022-11-23T02:29:19;6.20;99.90
30174;DHT22;16985;50.814;8.530;2022-11-23T02:31:48;6.20;99.90
30174;DHT22;16985;50.814;8.530;2022-11-23T02:34:15;6.20;99.90
30174;DHT22;16985;50.814;8.530;2022-11-23T02:36:50;6.20;99.90
30174;DHT22;16985;50.814;8.530;2022-11-23T02:39:31;6.20;99.90
30174;DHT22;16985;50.814;8.530;2022-11-23T02:41:59;6.20;99.90
30174;DHT22;16985;50.814;8.530;2022-11-23T02:47:40;6.20;99.90
30174;DHT22;16985;50.814;8.530;2022-11-23T02:50:08;6.20;99.90
30174;DHT22;16985;50.814;8.530;2022-11-23T02:52:33;6.20;99.90
30174;DHT22;16985;50.814;8.530;2022-11-23T02:54:59;6.20;99.90
30174;DHT22;16985;50.814;8.530;2022-11-23T02:57:25;6.20;99.90
30174;DHT22;16985;50.814;8.530;2022-11-23T02:59:51;6.20;99.90
30174;DHT22;16985;50.814;8.530;2022-11-23T03:02:17;6.40;99.90
30174;DHT22;16985;50.814;8.530;2022-11-23T03:04:43;6.20;99.90
30174;DHT22;16985;50.814;8.530;2022-11-23T03:07:09;6.20;99.90
30174;DHT22;16985;50.814;8.530;2022-11-23T03:09:34;6.30;99.90
30174;DHT22;16985;50.814;8.530;2022-11-23T03:12:01;6.30;99.90
30174;DHT22;16985;50.814;8.530;2022-11-23T03:14:27;6.20;99.90
30174;DHT22;16985;50.814;8.530;2022-11-23T03:16:57;6.30;99.90
30174;DHT22;16985;50.814;8.530;2022-11-23T03:19:24;6.30;99.90
30174;DHT22;16985;50.814;8.530;2022-11-23T03:21:51;6.20;99.90
30174;DHT22;16985;50.814;8.530;2022-11-23T03:24:17;6.30;99.90
30174;DHT22;16985;50.814;8.530;2022-11-23T03:26:44;6.30;99.90
30174;DHT22;16985;50.814;8.530;2022-11-23T03:29:15;6.30;99.90
30174;DHT22;16985;50.814;8.530;2022-11-23T03:31:41;6.30;99.90
30174;DHT22;16985;50.814;8.530;2022-11-23T03:34:11;6.30;99.90
30174;DHT22;16985;50.814;8.530;2022-11-23T03:36:37;6.30;99.90
30174;DHT22;16985;50.814;8.530;2022-11-23T03:39:03;6.30;99.90
30174;DHT22;16985;50.814;8.530;2022-11-23T03:41:55;6.30;99.90
30174;DHT22;16985;50.814;8.530;2022-11-23T03:44:26;6.30;99.90
30174;DHT22;16985;50.814;8.530;2022-11-23T03:46:52;6.30;99.90
30174;DHT22;16985;50.814;8.530;2022-11-23T03:49:18;6.30;99.90
30174;DHT22;16985;50.814;8.530;2022-11-23T03:51:44;6.30;99.90
30174;DHT22;16985;50.814;8.530;2022-11-23T03:54:10;6.30;99.90
30174;DHT22;16985;50.814;8.530;2022-11-23T03:56:37;6.30;99.90
30174;DHT22;16985;50.814;8.530;2022-11-23T03:59:03;6.30;99.90
30174;DHT22;16985;50.814;8.530;2022-11-23T04:01:28;6.30;99.90
30174;DHT22;16985;50.814;8.530;2022-11-23T04:04:00;6.30;99.90
30174;DHT22;16985;50.814;8.530;2022-11-23T04:06:36;6.30;99.90
30174;DHT22;16985;50.814;8.530;2022-11-23T04:09:28;6.30;99.90
30174;DHT22;16985;50.814;8.530;2022-11-23T04:12:13;6.30;99.90
30174;DHT22;16985;50.814;8.530;2022-11-23T04:14:39;6.30;99.90
30174;DHT22;16985;50.814;8.530;2022-11-23T04:17:05;6.30;99.90
30174;DHT22;16985;50.814;8.530;2022-11-23T04:19:32;6.30;99.90
30174;DHT22;16985;50.814;8.530;2022-11-23T04:21:57;6.30;99.90
30174;DHT22;16985;50.814;8.530;2022-11-23T04:24:25;6.40;99.90
30174;DHT22;16985;50.814;8.530;2022-11-23T04:26:54;6.30;99.90
30174;DHT22;16985;50.814;8.530;2022-11-23T04:29:19;6.30;99.90
30174;DHT22;16985;50.814;8.530;2022-11-23T04:31:50;6.30;99.90
30174;DHT22;16985;50.814;8.530;2022-11-23T04:34:17;6.30;99.90
30174;DHT22;16985;50.814;8.530;2022-11-23T04:36:44;6.30;99.90
30174;DHT22;16985;50.814;8.530;2022-11-23T04:39:11;6.30;99.90
30174;DHT22;16985;50.814;8.530;2022-11-23T04:41:52;6.30;99.90
30174;DHT22;16985;50.814;8.530;2022-11-23T04:44:18;6.30;99.90
30174;DHT22;16985;50.814;8.530;2022-11-23T04:46:48;6.30;99.90
30174;DHT22;16985;50.814;8.530;2022-11-23T04:49:15;6.30;99.90
30174;DHT22;16985;50.814;8.530;2022-11-23T04:51:43;6.30;99.90
30174;DHT22;16985;50.814;8.530;2022-11-23T04:54:09;6.30;99.90
30174;DHT22;16985;50.814;8.530;2022-11-23T04:56:43;6.30;99.90
30174;DHT22;16985;50.814;8.530;2022-11-23T04:59:09;6.30;99.90
30174;DHT22;16985;50.814;8.530;2022-11-23T05:01:36;6.30;99.90
30174;DHT22;16985;50.814;8.530;2022-11-23T05:04:20;6.30;99.90
30174;DHT22;16985;50.814;8.530;2022-11-23T05:06:48;6.40;99.90
30174;DHT22;16985;50.814;8.530;2022-11-23T05:09:14;6.30;99.90
30174;DHT22;16985;50.814;8.530;2022-11-23T05:12:18;6.30;99.90
30174;DHT22;16985;50.814;8.530;2022-11-23T05:14:44;6.40;99.90
30174;DHT22;16985;50.814;8.530;2022-11-23T05:17:14;6.30;99.90
30174;DHT22;16985;50.814;8.530;2022-11-23T05:19:41;6.40;99.90
30174;DHT22;16985;50.814;8.530;2022-11-23T05:22:07;6.40;99.90
30174;DHT22;16985;50.814;8.530;2022-11-23T05:24:35;6.40;99.90
30174;DHT22;16985;50.814;8.530;2022-11-23T05:27:14;6.30;99.90
30174;DHT22;16985;50.814;8.530;2022-11-23T05:29:40;6.40;99.90
30174;DHT22;16985;50.814;8.530;2022-11-23T05:32:06;6.40;99.90
30174;DHT22;16985;50.814;8.530;2022-11-23T05:34:32;6.40;99.90
30174;DHT22;16985;50.814;8.530;2022-11-23T05:36:59;6.40;99.90
30174;DHT22;16985;50.814;8.530;2022-11-23T05:39:25;6.40;99.90
30174;DHT22;16985;50.814;8.530;2022-11-23T05:41:52;6.40;99.90
30174;DHT22;16985;50.814;8.530;2022-11-23T05:44:32;6.40;99.90
30174;DHT22;16985;50.814;8.530;2022-11-23T05:46:58;6.40;99.90
30174;DHT22;16985;50.814;8.530;2022-11-23T05:49:26;6.30;99.90
30174;DHT22;16985;50.814;8.530;2022-11-23T05:51:52;6.40;99.90
30174;DHT22;16985;50.814;8.530;2022-11-23T05:54:18;6.40;99.90
30174;DHT22;16985;50.814;8.530;2022-11-23T05:56:54;6.40;99.90
30174;DHT22;16985;50.814;8.530;2022-11-23T05:59:23;6.40;99.90
30174;DHT22;16985;50.814;8.530;2022-11-23T06:01:55;6.40;99.90
30174;DHT22;16985;50.814;8.530;2022-11-23T06:04:26;6.40;99.90
30174;DHT22;16985;50.814;8.530;2022-11-23T06:06:52;6.40;99.90
30174;DHT22;16985;50.814;8.530;2022-11-23T06:09:23;6.40;99.90
30174;DHT22;16985;50.814;8.530;2022-11-23T06:11:51;6.40;99.90
30174;DHT22;16985;50.814;8.530;2022-11-23T06:14:19;6.40;99.90
30174;DHT22;16985;50.814;8.530;2022-11-23T06:16:46;6.40;99.90
30174;DHT22;16985;50.814;8.530;2022-11-23T06:19:21;6.40;99.90
30174;DHT22;16985;50.814;8.530;2022-11-23T06:21:47;6.50;99.90
30174;DHT22;16985;50.814;8.530;2022-11-23T06:24:14;6.40;99.90
30174;DHT22;16985;50.814;8.530;2022-11-23T06:26:40;6.40;99.90
30174;DHT22;16985;50.814;8.530;2022-11-23T06:29:06;6.40;99.90
30174;DHT22;16985;50.814;8.530;2022-11-23T06:31:33;6.40;99.90
30174;DHT22;16985;50.814;8.530;2022-11-23T06:33:59;6.40;99.90
30174;DHT22;16985;50.814;8.530;2022-11-23T06:36:24;6.40;99.90
30174;DHT22;16985;50.814;8.530;2022-11-23T06:38:51;6.40;99.90
30174;DHT22;16985;50.814;8.530;2022-11-23T06:41:21;6.40;99.90
30174;DHT22;16985;50.814;8.530;2022-11-23T06:43:47;6.40;99.90
30174;DHT22;16985;50.814;8.530;2022-11-23T06:46:22;6.40;99.90
30174;DHT22;16985;50.814;8.530;2022-11-23T06:48:47;6.40;99.90
30174;DHT22;16985;50.814;8.530;2022-11-23T06:51:14;6.40;99.90
30174;DHT22;16985;50.814;8.530;2022-11-23T06:53:41;6.40;99.90
30174;DHT22;16985;50.814;8.530;2022-11-23T06:56:08;6.40;99.90
30174;DHT22;16985;50.814;8.530;2022-11-23T06:58:35;6.40;99.90
30174;DHT22;16985;50.814;8.530;2022-11-23T07:01:06;6.40;99.90
30174;DHT22;16985;50.814;8.530;2022-11-23T07:03:42;6.40;99.90
30174;DHT22;16985;50.814;8.530;2022-11-23T07:06:18;6.40;99.90
30174;DHT22;16985;50.814;8.530;2022-11-23T07:08:44;6.40;99.90
30174;DHT22;16985;50.814;8.530;2022-11-23T07:11:26;6.40;99.90
30174;DHT22;16985;50.814;8.530;2022-11-23T07:13:53;6.40;99.90
30174;DHT22;16985;50.814;8.530;2022-11-23T07:16:20;6.40;99.90
30174;DHT22;16985;50.814;8.530;2022-11-23T07:18:48;6.30;99.90
30174;DHT22;16985;50.814;8.530;2022-11-23T07:21:15;6.30;99.90
30174;DHT22;16985;50.814;8.530;2022-11-23T07:23:41;6.30;99.90
30174;DHT22;16985;50.814;8.530;2022-11-23T07:26:07;6.30;99.90
30174;DHT22;16985;50.814;8.530;2022-11-23T07:28:33;6.30;99.90
30174;DHT22;16985;50.814;8.530;2022-11-23T07:30:59;6.20;99.90
30174;DHT22;16985;50.814;8.530;2022-11-23T07:33:27;6.20;99.90
30174;DHT22;16985;50.814;8.530;2022-11-23T07:35:52;6.30;99.90
30174;DHT22;16985;50.814;8.530;2022-11-23T07:38:19;6.20;99.90
30174;DHT22;16985;50.814;8.530;2022-11-23T07:40:48;6.20;99.90
30174;DHT22;16985;50.814;8.530;2022-11-23T07:43:29;6.30;99.90
30174;DHT22;16985;50.814;8.530;2022-11-23T07:45:55;6.20;99.90
30174;DHT22;16985;50.814;8.530;2022-11-23T07:48:22;6.20;99.90
30174;DHT22;16985;50.814;8.530;2022-11-23T07:50:51;6.20;99.90
30174;DHT22;16985;50.814;8.530;2022-11-23T07:53:17;6.30;99.90
30174;DHT22;16985;50.814;8.530;2022-11-23T07:55:43;6.30;99.90
30174;DHT22;16985;50.814;8.530;2022-11-23T07:58:10;6.30;99.90
30174;DHT22;16985;50.814;8.530;2022-11-23T08:00:36;6.30;99.90
30174;DHT22;16985;50.814;8.530;2022-11-23T08:03:02;6.30;99.90
30174;DHT22;16985;50.814;8.530;2022-11-23T08:05:31;6.30;99.90
30174;DHT22;16985;50.814;8.530;2022-11-23T08:08:01;6.30;99.90
30174;DHT22;16985;50.814;8.530;2022-11-23T08:10:29;6.30;99.90
30174;DHT22;16985;50.814;8.530;2022-11-23T08:12:57;6.30;99.90
30174;DHT22;16985;50.814;8.530;2022-11-23T08:15:23;6.30;99.90
30174;DHT22;16985;50.814;8.530;2022-11-23T08:17:54;6.40;99.90
30174;DHT22;16985;50.814;8.530;2022-11-23T08:20:23;6.40;99.90
30174;DHT22;16985;50.814;8.530;2022-11-23T08:22:49;6.40;99.90
30174;DHT22;16985;50.814;8.530;2022-11-23T08:25:15;6.40;99.90
30174;DHT22;16985;50.814;8.530;2022-11-23T08:27:41;6.40;99.90
30174;DHT22;16985;50.814;8.530;2022-11-23T08:30:07;6.40;99.90
30174;DHT22;16985;50.814;8.530;2022-11-23T08:32:33;6.40;99.90
30174;DHT22;16985;50.814;8.530;2022-11-23T08:34:59;6.40;99.90
30174;DHT22;16985;50.814;8.530;2022-11-23T08:37:25;6.40;99.90
30174;DHT22;16985;50.814;8.530;2022-11-23T08:39:51;6.50;99.90
30174;DHT22;16985;50.814;8.530;2022-11-23T08:42:16;6.50;99.90
30174;DHT22;16985;50.814;8.530;2022-11-23T08:44:42;6.40;99.90
30174;DHT22;16985;50.814;8.530;2022-11-23T08:47:08;6.50;99.90
30174;DHT22;16985;50.814;8.530;2022-11-23T08:49:33;6.50;99.90
30174;DHT22;16985;50.814;8.530;2022-11-23T08:51:59;6.50;99.90
30174;DHT22;16985;50.814;8.530;2022-11-23T08:54:25;6.60;99.90
30174;DHT22;16985;50.814;8.530;2022-11-23T08:56:51;6.50;99.90
30174;DHT22;16985;50.814;8.530;2022-11-23T08:59:17;6.50;99.90
30174;DHT22;16985;50.814;8.530;2022-11-23T09:01:44;6.60;99.90
30174;DHT22;16985;50.814;8.530;2022-11-23T09:04:10;6.60;99.90
30174;DHT22;16985;50.814;8.530;2022-11-23T09:06:35;6.60;99.90
30174;DHT22;16985;50.814;8.530;2022-11-23T09:09:02;6.60;99.90
30174;DHT22;16985;50.814;8.530;2022-11-23T09:11:28;6.70;99.90
30174;DHT22;16985;50.814;8.530;2022-11-23T09:13:54;6.70;99.90
30174;DHT22;16985;50.814;8.530;2022-11-23T09:16:19;6.70;99.90
30174;DHT22;16985;50.814;8.530;2022-11-23T09:18:45;6.70;99.90
30174;DHT22;16985;50.814;8.530;2022-11-23T09:21:14;6.70;99.90
30174;DHT22;16985;50.814;8.530;2022-11-23T09:23:39;6.80;99.90
30174;DHT22;16985;50.814;8.530;2022-11-23T09:26:05;6.70;99.90
30174;DHT22;16985;50.814;8.530;2022-11-23T09:28:31;6.70;99.90
30174;DHT22;16985;50.814;8.530;2022-11-23T09:30:57;6.80;99.90
30174;DHT22;16985;50.814;8.530;2022-11-23T09:33:27;6.70;99.90
30174;DHT22;16985;50.814;8.530;2022-11-23T09:36:01;6.70;99.90
30174;DHT22;16985;50.814;8.530;2022-11-23T09:38:28;6.70;99.90
30174;DHT22;16985;50.814;8.530;2022-11-23T09:47:38;6.80;99.90
30174;DHT22;16985;50.814;8.530;2022-11-23T09:50:24;6.80;99.90
30174;DHT22;16985;50.814;8.530;2022-11-23T09:53:03;6.90;99.90
30174;DHT22;16985;50.814;8.530;2022-11-23T09:55:43;6.90;99.90
30174;DHT22;16985;50.814;8.530;2022-11-23T09:58:17;6.90;99.90
30174;DHT22;16985;50.814;8.530;2022-11-23T10:01:10;7.00;99.90
30174;DHT22;16985;50.814;8.530;2022-11-23T10:03:40;7.00;99.90
30174;DHT22;16985;50.814;8.530;2022-11-23T10:06:28;7.10;99.90
30174;DHT22;16985;50.814;8.530;2022-11-23T10:09:17;7.20;99.90
30174;DHT22;16985;50.814;8.530;2022-11-23T10:12:03;7.20;99.90
30174;DHT22;16985;50.814;8.530;2022-11-23T10:17:52;7.30;99.90
30174;DHT22;16985;50.814;8.530;2022-11-23T10:26:13;7.50;99.90
30174;DHT22;16985;50.814;8.530;2022-11-23T10:28:41;7.60;99.90
30174;DHT22;16985;50.814;8.530;2022-11-23T10:36:21;7.80;99.90
30174;DHT22;16985;50.814;8.530;2022-11-23T10:38:50;7.80;99.90
30174;DHT22;16985;50.814;8.530;2022-11-23T10:41:19;7.90;99.90
30174;DHT22;16985;50.814;8.530;2022-11-23T10:44:00;8.00;99.90
30174;DHT22;16985;50.814;8.530;2022-11-23T10:49:20;8.00;99.90
30174;DHT22;16985;50.814;8.530;2022-11-23T10:54:32;8.00;99.90
30174;DHT22;16985;50.814;8.530;2022-11-23T10:57:47;8.00;99.90
30174;DHT22;16985;50.814;8.530;2022-11-23T11:02:40;8.10;99.90
30174;DHT22;16985;50.814;8.530;2022-11-23T11:08:11;8.30;99.90
30174;DHT22;16985;50.814;8.530;2022-11-23T11:10:56;8.30;99.90
30174;DHT22;16985;50.814;8.530;2022-11-23T11:13:44;8.30;99.90
30174;DHT22;16985;50.814;8.530;2022-11-23T11:16:25;8.30;99.90
30174;DHT22;16985;50.814;8.530;2022-11-23T11:18:55;8.40;99.90
30174;DHT22;16985;50.814;8.530;2022-11-23T11:21:35;8.40;99.90
30174;DHT22;16985;50.814;8.530;2022-11-23T11:24:17;8.40;99.90
30174;DHT22;16985;50.814;8.530;2022-11-23T11:26:56;8.40;99.90
30174;DHT22;16985;50.814;8.530;2022-11-23T11:29:32;8.30;99.90
30174;DHT22;16985;50.814;8.530;2022-11-23T11:32:02;8.30;99.90
30174;DHT22;16985;50.814;8.530;2022-11-23T11:34:40;8.20;99.90
30174;DHT22;16985;50.814;8.530;2022-11-23T11:40:22;8.20;99.90
30174;DHT22;16985;50.814;8.530;2022-11-23T11:43:01;8.20;99.90
30174;DHT22;16985;50.814;8.530;2022-11-23T11:45:45;8.20;99.90
30174;DHT22;16985;50.814;8.530;2022-11-23T11:48:20;8.20;99.90
30174;DHT22;16985;50.814;8.530;2022-11-23T11:50:56;8.20;99.90
30174;DHT22;16985;50.814;8.530;2022-11-23T11:53:35;8.20;99.90
30174;DHT22;16985;50.814;8.530;2022-11-23T11:56:26;8.20;99.90
30174;DHT22;16985;50.814;8.530;2022-11-23T11:59:13;8.10;99.90
30174;DHT22;16985;50.814;8.530;2022-11-23T12:01:46;8.10;99.90
30174;DHT22;16985;50.814;8.530;2022-11-23T12:04:39;8.10;99.90
30174;DHT22;16985;50.814;8.530;2022-11-23T12:09:44;8.10;99.90
30174;DHT22;16985;50.814;8.530;2022-11-23T12:12:17;8.10;99.90
30174;DHT22;16985;50.814;8.530;2022-11-23T12:14:44;8.10;99.90
30174;DHT22;16985;50.814;8.530;2022-11-23T12:37:21;8.20;99.90
30174;DHT22;16985;50.814;8.530;2022-11-23T12:40:03;8.20;99.90
30174;DHT22;16985;50.814;8.530;2022-11-23T12:42:45;8.20;99.90
30174;DHT22;16985;50.814;8.530;2022-11-23T12:45:25;8.20;99.90
30174;DHT22;16985;50.814;8.530;2022-11-23T12:51:08;8.10;99.90
30174;DHT22;16985;50.814;8.530;2022-11-23T12:54:05;8.10;99.90
30174;DHT22;16985;50.814;8.530;2022-11-23T12:56:51;8.20;99.90
30174;DHT22;16985;50.814;8.530;2022-11-23T12:59:20;8.30;99.90
30174;DHT22;16985;50.814;8.530;2022-11-23T13:01:51;8.40;99.90
30174;DHT22;16985;50.814;8.530;2022-11-23T13:10:24;8.50;99.90
30174;DHT22;16985;50.814;8.530;2022-11-23T13:14:15;8.50;99.90
30174;DHT22;16985;50.814;8.530;2022-11-23T13:19:12;8.60;99.90
30174;DHT22;16985;50.814;8.530;2022-11-23T13:21:45;8.60;99.90
30174;DHT22;16985;50.814;8.530;2022-11-23T13:24:36;8.70;99.90
30174;DHT22;16985;50.814;8.530;2022-11-23T13:40:40;8.80;99.90
30174;DHT22;16985;50.814;8.530;2022-11-23T13:45:40;8.70;99.90
30174;DHT22;16985;50.814;8.530;2022-11-23T13:50:37;8.70;99.90
30174;DHT22;16985;50.814;8.530;2022-11-23T13:56:22;8.60;99.90
30174;DHT22;16985;50.814;8.530;2022-11-23T14:04:37;8.30;99.90
30174;DHT22;16985;50.814;8.530;2022-11-23T14:12:47;8.30;99.90
30174;DHT22;16985;50.814;8.530;2022-11-23T14:15:21;8.30;99.90
30174;DHT22;16985;50.814;8.530;2022-11-23T14:20:55;8.60;99.90
30174;DHT22;16985;50.814;8.530;2022-11-23T14:43:14;8.70;99.90
30174;DHT22;16985;50.814;8.530;2022-11-23T14:45:45;8.50;99.90
30174;DHT22;16985;50.814;8.530;2022-11-23T14:48:30;8.40;99.90
30174;DHT22;16985;50.814;8.530;2022-11-23T14:50:59;8.30;99.90
30174;DHT22;16985;50.814;8.530;2022-11-23T14:53:34;8.20;99.90
30174;DHT22;16985;50.814;8.530;2022-11-23T14:56:04;8.10;99.90
30174;DHT22;16985;50.814;8.530;2022-11-23T14:58:31;8.10;99.90
30174;DHT22;16985;50.814;8.530;2022-11-23T15:00:59;8.00;99.90
30174;DHT22;16985;50.814;8.530;2022-11-23T15:03:28;7.90;99.90
30174;DHT22;16985;50.814;8.530;2022-11-23T15:06:12;7.80;99.90
30174;DHT22;16985;50.814;8.530;2022-11-23T15:08:45;7.80;99.90
30174;DHT22;16985;50.814;8.530;2022-11-23T15:11:19;7.70;99.90
30174;DHT22;16985;50.814;8.530;2022-11-23T15:13:48;7.70;99.90
30174;DHT22;16985;50.814;8.530;2022-11-23T15:16:17;7.60;99.90
30174;DHT22;16985;50.814;8.530;2022-11-23T15:18:44;7.50;99.90
30174;DHT22;16985;50.814;8.530;2022-11-23T15:23:54;7.50;99.90
30174;DHT22;16985;50.814;8.530;2022-11-23T15:26:29;7.50;99.90
30174;DHT22;16985;50.814;8.530;2022-11-23T15:28:55;7.40;99.90
30174;DHT22;16985;50.814;8.530;2022-11-23T15:31:31;7.30;99.90
30174;DHT22;16985;50.814;8.530;2022-11-23T15:34:04;7.30;99.90
30174;DHT22;16985;50.814;8.530;2022-11-23T15:36:37;7.20;99.90
30174;DHT22;16985;50.814;8.530;2022-11-23T15:39:16;7.10;99.90
30174;DHT22;16985;50.814;8.530;2022-11-23T15:41:44;7.10;99.90
30174;DHT22;16985;50.814;8.530;2022-11-23T15:44:30;7.00;99.90
30174;DHT22;16985;50.814;8.530;2022-11-23T15:46:59;6.90;99.90
30174;DHT22;16985;50.814;8.530;2022-11-23T15:49:28;6.90;99.90
30174;DHT22;16985;50.814;8.530;2022-11-23T15:52:00;6.80;99.90
30174;DHT22;16985;50.814;8.530;2022-11-23T15:54:33;6.70;99.90
30174;DHT22;16985;50.814;8.530;2022-11-23T15:57:05;6.60;99.90
30174;DHT22;16985;50.814;8.530;2022-11-23T15:59:42;6.60;99.90
30174;DHT22;16985;50.814;8.530;2022-11-23T16:02:20;6.50;99.90
30174;DHT22;16985;50.814;8.530;2022-11-23T16:04:49;6.50;99.90
30174;DHT22;16985;50.814;8.530;2022-11-23T16:07:59;6.40;99.90
30174;DHT22;16985;50.814;8.530;2022-11-23T16:10:28;6.30;99.90
30174;DHT22;16985;50.814;8.530;2022-11-23T16:13:01;6.30;99.90
30174;DHT22;16985;50.814;8.530;2022-11-23T16:18:26;6.10;99.90
30174;DHT22;16985;50.814;8.530;2022-11-23T16:21:03;6.00;99.90
30174;DHT22;16985;50.814;8.530;2022-11-23T16:23:54;6.00;99.90
30174;DHT22;16985;50.814;8.530;2022-11-23T16:26:29;5.90;99.90
30174;DHT22;16985;50.814;8.530;2022-11-23T16:28:57;5.90;99.90
30174;DHT22;16985;50.814;8.530;2022-11-23T16:31:37;5.80;99.90
30174;DHT22;16985;50.814;8.530;2022-11-23T16:34:16;5.80;99.90
30174;DHT22;16985;50.814;8.530;2022-11-23T16:36:42;5.80;99.90
30174;DHT22;16985;50.814;8.530;2022-11-23T16:39:08;5.80;99.90
30174;DHT22;16985;50.814;8.530;2022-11-23T16:41:34;5.70;99.90
30174;DHT22;16985;50.814;8.530;2022-11-23T16:44:01;5.70;99.90
30174;DHT22;16985;50.814;8.530;2022-11-23T16:46:28;5.70;99.90
30174;DHT22;16985;50.814;8.530;2022-11-23T16:48:54;5.70;99.90
30174;DHT22;16985;50.814;8.530;2022-11-23T16:51:22;5.70;99.90
30174;DHT22;16985;50.814;8.530;2022-11-23T16:53:47;5.70;99.90
30174;DHT22;16985;50.814;8.530;2022-11-23T16:56:26;5.70;99.90
30174;DHT22;16985;50.814;8.530;2022-11-23T16:58:53;5.70;99.90
30174;DHT22;16985;50.814;8.530;2022-11-23T17:01:22;5.70;99.90
30174;DHT22;16985;50.814;8.530;2022-11-23T17:03:49;5.70;99.90
30174;DHT22;16985;50.814;8.530;2022-11-23T17:06:16;5.70;99.90
30174;DHT22;16985;50.814;8.530;2022-11-23T17:08:43;5.70;99.90
30174;DHT22;16985;50.814;8.530;2022-11-23T17:11:21;5.80;99.90
30174;DHT22;16985;50.814;8.530;2022-11-23T17:13:50;5.70;99.90
30174;DHT22;16985;50.814;8.530;2022-11-23T17:16:19;5.70;99.90
30174;DHT22;16985;50.814;8.530;2022-11-23T17:18:47;5.70;99.90
30174;DHT22;16985;50.814;8.530;2022-11-23T17:21:13;5.70;99.90
30174;DHT22;16985;50.814;8.530;2022-11-23T17:23:39;5.70;99.90
30174;DHT22;16985;50.814;8.530;2022-11-23T17:28:54;5.70;99.90
30174;DHT22;16985;50.814;8.530;2022-11-23T17:31:20;5.80;99.90
30174;DHT22;16985;50.814;8.530;2022-11-23T17:33:46;5.70;99.90
30174;DHT22;16985;50.814;8.530;2022-11-23T17:36:12;5.80;99.90
30174;DHT22;16985;50.814;8.530;2022-11-23T17:38:38;5.80;99.90
30174;DHT22;16985;50.814;8.530;2022-11-23T17:41:04;5.80;99.90
30174;DHT22;16985;50.814;8.530;2022-11-23T17:43:30;5.80;99.90
30174;DHT22;16985;50.814;8.530;2022-11-23T17:45:55;5.80;99.90
30174;DHT22;16985;50.814;8.530;2022-11-23T17:48:22;5.80;99.90
30174;DHT22;16985;50.814;8.530;2022-11-23T17:50:48;5.80;99.90
30174;DHT22;16985;50.814;8.530;2022-11-23T17:53:14;5.90;99.90
30174;DHT22;16985;50.814;8.530;2022-11-23T17:55:40;5.90;99.90
30174;DHT22;16985;50.814;8.530;2022-11-23T17:58:06;5.90;99.90
30174;DHT22;16985;50.814;8.530;2022-11-23T18:00:35;5.90;99.90
30174;DHT22;16985;50.814;8.530;2022-11-23T18:03:02;5.90;99.90
30174;DHT22;16985;50.814;8.530;2022-11-23T18:05:28;6.00;99.90
30174;DHT22;16985;50.814;8.530;2022-11-23T18:07:54;6.00;99.90
30174;DHT22;16985;50.814;8.530;2022-11-23T18:10:20;6.10;99.90
30174;DHT22;16985;50.814;8.530;2022-11-23T18:12:47;6.10;99.90
30174;DHT22;16985;50.814;8.530;2022-11-23T18:15:13;6.10;99.90
30174;DHT22;16985;50.814;8.530;2022-11-23T18:17:39;6.10;99.90
30174;DHT22;16985;50.814;8.530;2022-11-23T18:20:08;6.10;99.90
30174;DHT22;16985;50.814;8.530;2022-11-23T18:22:35;6.10;99.90
30174;DHT22;16985;50.814;8.530;2022-11-23T18:25:01;6.10;99.90
30174;DHT22;16985;50.814;8.530;2022-11-23T18:27:26;6.10;99.90
30174;DHT22;16985;50.814;8.530;2022-11-23T18:29:54;6.10;99.90